Time;durP1;ratioP1;P1;durP2;ratioP2;P2;SDS_P1;SDS_P2;PMS_P1;PMS_P2;Temp;Humidity;BMP_temperature;BMP_pressure;BME280_temperature;BME280_humidity;BME280_pressure;Samples;Min_cycle;Max_cycle;Signal;HPM_P1;HPM_P2
2022/03/14 00:00:18;;;;;;;8.50;2.80;;;;;;;;;;4950049;28;20058;-64
2022/03/14 00:02:50;;;;;;;5.53;2.80;;;;;;;;;;4950278;28;20044;-64
2022/03/14 00:05:24;;;;;;;6.80;2.45;;;;;;;;;;4931045;29;20051;-63
2022/03/14 00:08:01;;;;;;;6.13;2.75;;;;;;;;;;4948377;29;20059;-64
2022/03/14 00:10:37;;;;;;;4.35;2.70;;;;;;;;;;4950017;29;20059;-63
2022/03/14 00:13:10;;;;;;;6.35;2.40;;;;;;;;;;4905112;29;20059;-63
2022/03/14 00:15:44;;;;;;;11.82;2.55;;;;;;;;;;4950075;29;20051;-63
2022/03/14 00:18:18;;;;;;;10.48;2.47;;;;;;;;;;4951315;28;20059;-63
2022/03/14 00:20:49;;;;;;;8.38;2.13;;;;;;;;;;4937840;29;20051;-63
2022/03/14 00:23:21;;;;;;;6.63;2.50;;;;;;;;;;4934120;29;20048;-64
2022/03/14 00:25:57;;;;;;;7.35;2.13;;;;;;;;;;4916950;29;20052;-63
2022/03/14 00:28:30;;;;;;;5.72;2.45;;;;;;;;;;4952313;29;20054;-63
2022/03/14 00:31:01;;;;;;;12.90;2.50;;;;;;;;;;4937757;29;20506;-63
2022/03/14 00:33:32;;;;;;;9.10;2.75;;;;;;;;;;4987006;28;20419;-63
2022/03/14 00:36:06;;;;;;;5.35;2.83;;;;;;;;;;4972458;28;20392;-63
2022/03/14 00:38:37;;;;;;;6.57;3.45;;;;;;;;;;4957136;28;20044;-63
2022/03/14 00:41:09;;;;;;;6.40;2.83;;;;;;;;;;4937243;29;20070;-64
2022/03/14 00:43:41;;;;;;;5.93;2.80;;;;;;;;;;4953122;29;20062;-63
2022/03/14 00:46:23;;;;;;;5.18;2.80;;;;;;;;;;4938438;29;20048;-64
2022/03/14 00:48:56;;;;;;;9.45;2.38;;;;;;;;;;4919093;29;20052;-64
2022/03/14 00:51:27;;;;;;;3.70;2.20;;;;;;;;;;4918186;29;20052;-64
2022/03/14 00:53:58;;;;;;;6.80;2.55;;;;;;;;;;4934061;29;20421;-64
2022/03/14 00:59:25;;;;;;;5.80;2.58;;;;;;;;;;4971983;28;20055;-64
2022/03/14 01:01:57;;;;;;;10.70;2.65;;;;;;;;;;4974033;28;20069;-64
2022/03/14 01:04:48;;;;;;;11.05;2.53;;;;;;;;;;4991713;28;20058;-65
2022/03/14 01:07:21;;;;;;;7.40;2.72;;;;;;;;;;4991319;28;20062;-65
2022/03/14 01:09:54;;;;;;;8.32;2.75;;;;;;;;;;4971654;28;20407;-65
2022/03/14 01:12:25;;;;;;;6.50;2.47;;;;;;;;;;4972101;28;20070;-65
2022/03/14 01:14:57;;;;;;;9.18;2.78;;;;;;;;;;4952776;29;20353;-65
2022/03/14 01:17:32;;;;;;;11.07;2.60;;;;;;;;;;4952870;28;20066;-65
2022/03/14 01:20:04;;;;;;;7.72;2.55;;;;;;;;;;4952646;29;20492;-65
2022/03/14 01:22:40;;;;;;;4.18;2.45;;;;;;;;;;4920611;29;20062;-65
2022/03/14 01:25:16;;;;;;;9.32;2.60;;;;;;;;;;4952704;29;20423;-65
2022/03/14 01:27:50;;;;;;;9.40;2.55;;;;;;;;;;4952129;28;20047;-65
2022/03/14 01:30:22;;;;;;;9.35;2.58;;;;;;;;;;4952040;28;20107;-64
2022/03/14 01:32:56;;;;;;;5.35;2.45;;;;;;;;;;4951890;29;20043;-65
2022/03/14 01:35:27;;;;;;;9.05;2.22;;;;;;;;;;4932830;29;20048;-65
2022/03/14 01:38:00;;;;;;;11.30;2.70;;;;;;;;;;4948002;29;20059;-65
2022/03/14 01:40:31;;;;;;;;;;;;;;;;;;4899826;29;20053;-65
2022/03/14 01:43:01;;;;;;;7.38;2.80;;;;;;;;;;4900023;29;20423;-64
2022/03/14 01:45:35;;;;;;;10.32;3.30;;;;;;;;;;4895468;29;20065;-64
2022/03/14 01:48:06;;;;;;;10.38;3.05;;;;;;;;;;4879428;29;20060;-64
2022/03/14 01:50:40;;;;;;;9.85;2.30;;;;;;;;;;4895331;29;20057;-64
2022/03/14 01:53:13;;;;;;;10.02;3.00;;;;;;;;;;4894390;29;20196;-64
2022/03/14 01:55:49;;;;;;;7.93;2.90;;;;;;;;;;4910363;29;20097;-64
2022/03/14 01:58:21;;;;;;;6.10;2.38;;;;;;;;;;4894507;29;20069;-64
2022/03/14 02:00:52;;;;;;;14.48;2.92;;;;;;;;;;4923876;29;20063;-65
2022/03/14 02:03:23;;;;;;;10.30;2.60;;;;;;;;;;4917281;29;20063;-64
2022/03/14 02:05:58;;;;;;;10.52;2.50;;;;;;;;;;4932690;29;20056;-64
2022/03/14 02:08:34;;;;;;;8.93;2.58;;;;;;;;;;4932625;29;20056;-64
2022/03/14 02:11:04;;;;;;;7.70;2.63;;;;;;;;;;4919382;29;20406;-64
2022/03/14 02:13:34;;;;;;;9.30;2.83;;;;;;;;;;4913657;29;20060;-64
2022/03/14 02:16:08;;;;;;;9.32;2.92;;;;;;;;;;4939621;29;20411;-65
2022/03/14 02:18:40;;;;;;;14.73;3.33;;;;;;;;;;4951394;29;20055;-65
2022/03/14 02:21:13;;;;;;;5.70;3.40;;;;;;;;;;4965204;28;20066;-65
2022/03/14 02:23:44;;;;;;;8.48;2.90;;;;;;;;;;4932130;29;20052;-65
2022/03/14 02:26:14;;;;;;;6.45;3.40;;;;;;;;;;4916102;29;20052;-64
2022/03/14 02:28:48;;;;;;;8.82;3.45;;;;;;;;;;4932040;29;20460;-64
2022/03/14 02:31:18;;;;;;;12.02;3.22;;;;;;;;;;4913620;29;20059;-64
2022/03/14 02:33:49;;;;;;;11.82;3.67;;;;;;;;;;4951147;29;20059;-65
2022/03/14 02:36:21;;;;;;;11.05;4.18;;;;;;;;;;4950314;28;20495;-64
2022/03/14 02:38:53;;;;;;;8.60;4.03;;;;;;;;;;4989694;28;20065;-65
2022/03/14 02:41:24;;;;;;;11.68;3.90;;;;;;;;;;4989007;28;20054;-65
2022/03/14 02:44:01;;;;;;;6.82;3.28;;;;;;;;;;4989733;28;20466;-65
2022/03/14 02:46:34;;;;;;;15.32;4.18;;;;;;;;;;4989987;28;20065;-65
2022/03/14 02:49:08;;;;;;;13.73;3.92;;;;;;;;;;4941671;28;20103;-65
2022/03/14 02:51:40;;;;;;;9.70;3.30;;;;;;;;;;4941429;28;20054;-66
2022/03/14 02:54:11;;;;;;;8.18;3.35;;;;;;;;;;4941596;28;20062;-65
2022/03/14 02:56:41;;;;;;;10.02;3.88;;;;;;;;;;5013887;28;20060;-65
2022/03/14 02:59:16;;;;;;;9.48;3.67;;;;;;;;;;5028996;28;20053;-65
2022/03/14 03:01:46;;;;;;;9.35;3.63;;;;;;;;;;5041958;28;20053;-65
2022/03/14 03:04:17;;;;;;;8.32;3.33;;;;;;;;;;5032176;28;20049;-65
2022/03/14 03:07:11;;;;;;;10.18;3.72;;;;;;;;;;5048711;28;20637;-65
2022/03/14 03:09:44;;;;;;;10.75;3.63;;;;;;;;;;5048842;28;20049;-65
2022/03/14 03:12:14;;;;;;;15.52;3.30;;;;;;;;;;4992235;28;20711;-64
2022/03/14 03:14:46;;;;;;;13.30;3.60;;;;;;;;;;4961947;28;20053;-65
2022/03/14 03:17:21;;;;;;;14.68;3.30;;;;;;;;;;4969779;28;20073;-65
2022/03/14 03:19:53;;;;;;;9.70;3.95;;;;;;;;;;4987067;28;20053;-65
2022/03/14 03:22:27;;;;;;;31.10;3.97;;;;;;;;;;5008874;28;20490;-65
2022/03/14 03:24:58;;;;;;;18.55;3.17;;;;;;;;;;5028309;28;20053;-65
2022/03/14 03:27:28;;;;;;;8.27;3.17;;;;;;;;;;4979436;28;20060;-65
2022/03/14 03:30:02;;;;;;;10.18;3.30;;;;;;;;;;5028507;28;20065;-65
2022/03/14 03:32:34;;;;;;;8.63;3.25;;;;;;;;;;4979954;28;20045;-65
2022/03/14 03:35:06;;;;;;;10.07;3.40;;;;;;;;;;5028566;28;20053;-65
2022/03/14 03:37:37;;;;;;;18.45;3.53;;;;;;;;;;5011612;28;20053;-65
2022/03/14 03:40:11;;;;;;;12.55;3.58;;;;;;;;;;5028462;28;20064;-65
2022/03/14 03:42:44;;;;;;;10.80;3.58;;;;;;;;;;4988661;28;20050;-65
2022/03/14 03:45:17;;;;;;;8.88;3.58;;;;;;;;;;4988903;28;20054;-65
2022/03/14 03:47:49;;;;;;;13.15;3.40;;;;;;;;;;4993280;28;20062;-65
2022/03/14 03:50:22;;;;;;;6.90;3.33;;;;;;;;;;5022135;28;20056;-65
2022/03/14 03:52:52;;;;;;;9.95;3.85;;;;;;;;;;5010574;28;20049;-65
2022/03/14 03:55:22;;;;;;;7.03;3.58;;;;;;;;;;4992467;28;20058;-65
2022/03/14 03:57:57;;;;;;;9.82;3.05;;;;;;;;;;4992580;28;20059;-65
2022/03/14 04:00:29;;;;;;;14.75;3.30;;;;;;;;;;4992691;28;20050;-65
2022/03/14 04:02:59;;;;;;;10.55;3.58;;;;;;;;;;4932111;28;20077;-65
2022/03/14 04:05:39;;;;;;;6.93;3.67;;;;;;;;;;4973493;28;20065;-65
2022/03/14 04:08:11;;;;;;;6.72;2.60;;;;;;;;;;4973409;28;20059;-65
2022/03/14 04:10:43;;;;;;;11.25;3.50;;;;;;;;;;4918772;29;20437;-65
2022/03/14 04:13:13;;;;;;;8.80;3.47;;;;;;;;;;4918813;29;20074;-66
2022/03/14 04:15:50;;;;;;;9.95;3.53;;;;;;;;;;4934721;29;20067;-65
2022/03/14 04:18:25;;;;;;;8.98;3.40;;;;;;;;;;4915377;29;20052;-65
2022/03/14 04:20:59;;;;;;;15.30;3.70;;;;;;;;;;4900600;29;20056;-65
2022/03/14 04:23:31;;;;;;;5.57;3.35;;;;;;;;;;4930785;29;20071;-65
2022/03/14 04:26:02;;;;;;;8.75;3.30;;;;;;;;;;4899942;29;20509;-65
2022/03/14 04:28:36;;;;;;;23.23;3.90;;;;;;;;;;4915808;29;20468;-65
2022/03/14 04:31:11;;;;;;;6.85;3.40;;;;;;;;;;4942945;29;20071;-65
2022/03/14 04:33:41;;;;;;;9.48;3.28;;;;;;;;;;4952394;28;20058;-65
2022/03/14 04:36:14;;;;;;;9.10;3.08;;;;;;;;;;4972690;28;20758;-65
2022/03/14 04:38:45;;;;;;;8.30;3.40;;;;;;;;;;4992176;28;20053;-65
2022/03/14 04:41:17;;;;;;;7.20;3.47;;;;;;;;;;4992184;28;21164;-65
2022/03/14 04:43:49;;;;;;;7.78;3.50;;;;;;;;;;4992025;28;20426;-65
2022/03/14 04:46:22;;;;;;;4.82;2.85;;;;;;;;;;4975754;28;20422;-65
2022/03/14 04:48:52;;;;;;;7.68;2.75;;;;;;;;;;4968045;28;20156;-65
2022/03/14 04:51:25;;;;;;;8.20;2.60;;;;;;;;;;5011576;28;20133;-65
2022/03/14 04:53:56;;;;;;;9.00;3.35;;;;;;;;;;5011455;28;20066;-65
2022/03/14 04:56:28;;;;;;;6.40;3.13;;;;;;;;;;5038026;28;20049;-65
2022/03/14 04:59:04;;;;;;;6.80;3.17;;;;;;;;;;4986047;28;20098;-64
2022/03/14 05:01:36;;;;;;;7.25;2.85;;;;;;;;;;5051005;28;20052;-65
2022/03/14 05:04:07;;;;;;;8.73;3.10;;;;;;;;;;5050136;28;20061;-65
2022/03/14 05:06:39;;;;;;;5.85;2.63;;;;;;;;;;5017674;28;20052;-64
2022/03/14 05:09:11;;;;;;;6.57;3.17;;;;;;;;;;5018283;28;20498;-64
2022/03/14 05:11:47;;;;;;;6.93;2.97;;;;;;;;;;4991320;28;20502;-64
2022/03/14 05:14:17;;;;;;;;;;;;;;;;;;4991928;28;20523;-64
2022/03/14 05:16:50;;;;;;;8.32;3.38;;;;;;;;;;5004513;28;19921;-65
2022/03/14 05:19:21;;;;;;;8.70;3.05;;;;;;;;;;4978800;28;20061;-65
2022/03/14 05:21:54;;;;;;;7.28;3.25;;;;;;;;;;5010766;28;20449;-64
2022/03/14 05:24:24;;;;;;;6.55;3.20;;;;;;;;;;5010892;28;20528;-64
2022/03/14 05:26:55;;;;;;;8.52;4.10;;;;;;;;;;5023775;28;20057;-64
2022/03/14 05:29:27;;;;;;;9.68;3.42;;;;;;;;;;5030458;28;20057;-65
2022/03/14 05:31:59;;;;;;;;;;;;;;;;;;5030887;28;20544;-65
2022/03/14 05:34:32;;;;;;;9.68;3.42;;;;;;;;;;5030434;28;20438;-65
2022/03/14 05:37:02;;;;;;;7.72;3.20;;;;;;;;;;5030420;28;20053;-65
2022/03/14 05:39:33;;;;;;;8.77;2.88;;;;;;;;;;5030651;28;20117;-65
2022/03/14 05:42:06;;;;;;;6.68;2.65;;;;;;;;;;5030465;28;20536;-65
2022/03/14 05:44:37;;;;;;;4.43;2.78;;;;;;;;;;5030310;28;20054;-64
2022/03/14 05:47:07;;;;;;;6.28;2.78;;;;;;;;;;5010306;28;20054;-65
2022/03/14 05:49:38;;;;;;;12.23;3.28;;;;;;;;;;4989300;28;20501;-65
2022/03/14 05:52:10;;;;;;;4.90;2.90;;;;;;;;;;5030106;28;20155;-65
2022/03/14 05:54:42;;;;;;;5.80;2.80;;;;;;;;;;5029870;28;20057;-64
2022/03/14 05:57:12;;;;;;;8.82;3.58;;;;;;;;;;5030124;28;20057;-65
2022/03/14 05:59:43;;;;;;;8.05;3.15;;;;;;;;;;5030467;28;20513;-65
2022/03/14 06:02:18;;;;;;;8.60;3.35;;;;;;;;;;5013573;28;20410;-65
2022/03/14 06:04:51;;;;;;;7.57;3.17;;;;;;;;;;4990345;28;20050;-64
2022/03/14 06:07:23;;;;;;;7.05;3.20;;;;;;;;;;5002169;28;20121;-65
2022/03/14 06:09:54;;;;;;;5.00;2.55;;;;;;;;;;5010555;28;20053;-65
2022/03/14 06:12:28;;;;;;;4.70;2.58;;;;;;;;;;5009727;28;20058;-65
2022/03/14 06:15:02;;;;;;;8.32;3.28;;;;;;;;;;5009462;28;20049;-64
2022/03/14 06:17:41;;;;;;;6.88;3.30;;;;;;;;;;5009569;28;20635;-64
2022/03/14 06:20:16;;;;;;;7.85;3.45;;;;;;;;;;4994180;28;20061;-65
2022/03/14 06:22:47;;;;;;;6.68;3.30;;;;;;;;;;4993437;28;20050;-64
2022/03/14 06:25:21;;;;;;;5.40;3.10;;;;;;;;;;5012817;28;20057;-64
2022/03/14 06:27:52;;;;;;;5.95;3.15;;;;;;;;;;5012723;28;20050;-65
2022/03/14 06:30:24;;;;;;;5.85;2.97;;;;;;;;;;5029314;28;20057;-65
2022/03/14 06:32:54;;;;;;;6.82;2.88;;;;;;;;;;4990008;28;20530;-64
2022/03/14 06:35:27;;;;;;;4.57;2.90;;;;;;;;;;4950783;28;20058;-65
2022/03/14 06:38:02;;;;;;;11.57;3.22;;;;;;;;;;4912547;29;20055;-65
2022/03/14 06:40:35;;;;;;;11.75;3.67;;;;;;;;;;4928689;29;20075;-65
2022/03/14 06:43:07;;;;;;;10.77;2.90;;;;;;;;;;4942015;29;20059;-65
2022/03/14 06:45:45;;;;;;;6.30;2.88;;;;;;;;;;4951194;29;20078;-65
2022/03/14 06:48:18;;;;;;;6.82;2.92;;;;;;;;;;4951081;29;20532;-65
2022/03/14 06:50:49;;;;;;;9.30;3.10;;;;;;;;;;4950755;29;20507;-65
2022/03/14 06:53:19;;;;;;;7.80;3.00;;;;;;;;;;4888051;29;20062;-65
2022/03/14 06:55:50;;;;;;;7.15;2.90;;;;;;;;;;4935135;29;20067;-65
2022/03/14 06:58:22;;;;;;;7.05;2.83;;;;;;;;;;4950870;29;20507;-64
2022/03/14 07:00:52;;;;;;;7.25;3.10;;;;;;;;;;4950898;29;20051;-65
2022/03/14 07:03:27;;;;;;;7.43;3.45;;;;;;;;;;4919321;29;20193;-65
2022/03/14 07:05:57;;;;;;;10.18;3.15;;;;;;;;;;4950890;29;20079;-65
2022/03/14 07:08:27;;;;;;;10.55;3.10;;;;;;;;;;4950592;29;20060;-65
2022/03/14 07:11:02;;;;;;;5.03;2.80;;;;;;;;;;4991145;28;20068;-65
2022/03/14 07:13:34;;;;;;;10.18;3.35;;;;;;;;;;5036520;28;20057;-65
2022/03/14 07:16:04;;;;;;;7.00;3.10;;;;;;;;;;5077716;28;20048;-65
2022/03/14 07:18:37;;;;;;;7.18;3.25;;;;;;;;;;5090985;28;20048;-65
2022/03/14 07:21:10;;;;;;;5.65;2.88;;;;;;;;;;5091143;28;20040;-65
2022/03/14 07:23:41;;;;;;;9.35;2.72;;;;;;;;;;5091085;28;20055;-64
2022/03/14 07:26:14;;;;;;;8.73;2.60;;;;;;;;;;5091049;28;20047;-64
2022/03/14 07:28:48;;;;;;;7.43;3.25;;;;;;;;;;5091040;28;20407;-65
2022/03/14 07:31:22;;;;;;;6.03;3.00;;;;;;;;;;5091143;28;20067;-65
2022/03/14 07:33:54;;;;;;;9.98;2.72;;;;;;;;;;5091049;28;20043;-64
2022/03/14 07:36:24;;;;;;;7.90;3.08;;;;;;;;;;5068070;28;20040;-65
2022/03/14 07:38:57;;;;;;;5.70;3.00;;;;;;;;;;5068443;28;20056;-65
2022/03/14 07:41:29;;;;;;;8.10;2.90;;;;;;;;;;5051286;28;20045;-65
2022/03/14 07:44:02;;;;;;;9.95;2.90;;;;;;;;;;5018780;28;20048;-65
2022/03/14 07:46:34;;;;;;;4.50;2.65;;;;;;;;;;5019008;28;20052;-65
2022/03/14 07:49:05;;;;;;;7.22;2.97;;;;;;;;;;5028139;28;20068;-65
2022/03/14 07:51:37;;;;;;;8.77;3.13;;;;;;;;;;4995799;28;20150;-65
2022/03/14 07:54:10;;;;;;;7.00;3.40;;;;;;;;;;5008213;28;20053;-65
2022/03/14 07:56:42;;;;;;;6.88;3.00;;;;;;;;;;5008317;28;20151;-65
2022/03/14 07:59:12;;;;;;;7.80;2.95;;;;;;;;;;4976023;28;20054;-65
2022/03/14 08:01:42;;;;;;;8.15;2.80;;;;;;;;;;5008296;28;20494;-65
2022/03/14 08:04:15;;;;;;;6.53;3.03;;;;;;;;;;5008673;28;20073;-65
2022/03/14 08:06:48;;;;;;;6.32;2.85;;;;;;;;;;4991839;28;20049;-65
2022/03/14 08:09:21;;;;;;;7.57;3.40;;;;;;;;;;4961709;28;20054;-64
2022/03/14 08:11:52;;;;;;;6.57;3.13;;;;;;;;;;4968772;28;20042;-64
2022/03/14 08:14:22;;;;;;;6.70;3.30;;;;;;;;;;4934275;28;20061;-64
2022/03/14 08:16:52;;;;;;;9.18;2.75;;;;;;;;;;4988682;28;20110;-64
2022/03/14 08:19:27;;;;;;;12.60;5.25;;;;;;;;;;4988839;28;20074;-64
2022/03/14 08:22:06;;;;;;;5.00;2.70;;;;;;;;;;4988672;28;20046;-64
2022/03/14 08:24:37;;;;;;;7.68;2.95;;;;;;;;;;4992902;28;20050;-64
2022/03/14 08:27:08;;;;;;;7.43;3.03;;;;;;;;;;4995539;28;20056;-65
2022/03/14 08:29:40;;;;;;;;;;;;;;;;;;5048326;28;20177;-64
2022/03/14 08:32:13;;;;;;;10.70;3.67;;;;;;;;;;4991571;28;21023;-64
2022/03/14 08:34:45;;;;;;;9.30;3.40;;;;;;;;;;4959042;28;20074;-65
2022/03/14 08:37:16;;;;;;;9.10;3.38;;;;;;;;;;5007917;28;20418;-64
2022/03/14 08:39:52;;;;;;;9.98;3.63;;;;;;;;;;5010227;28;20050;-64
2022/03/14 08:42:24;;;;;;;6.57;3.10;;;;;;;;;;5011813;28;20046;-64
2022/03/14 08:44:55;;;;;;;9.65;3.60;;;;;;;;;;5011474;28;20061;-64
2022/03/14 08:47:25;;;;;;;8.60;3.38;;;;;;;;;;4959795;28;20680;-65
2022/03/14 08:50:02;;;;;;;14.50;3.90;;;;;;;;;;5009093;28;20053;-64
2022/03/14 08:52:33;;;;;;;7.47;3.53;;;;;;;;;;4978527;28;20053;-64
2022/03/14 08:55:05;;;;;;;7.50;3.55;;;;;;;;;;5011207;28;20073;-65
2022/03/14 08:57:43;;;;;;;12.30;3.40;;;;;;;;;;4963589;28;20053;-64
2022/03/14 09:00:24;;;;;;;8.60;3.15;;;;;;;;;;4995223;28;20076;-65
2022/03/14 09:02:59;;;;;;;9.43;3.38;;;;;;;;;;4994955;28;20050;-65
2022/03/14 09:05:29;;;;;;;6.90;3.90;;;;;;;;;;5011496;28;20066;-65
2022/03/14 09:08:00;;;;;;;10.60;3.90;;;;;;;;;;5011286;28;20509;-65
2022/03/14 09:10:36;;;;;;;8.27;3.90;;;;;;;;;;5026379;28;20426;-64
2022/03/14 09:13:07;;;;;;;9.90;3.22;;;;;;;;;;4998631;28;20053;-64
2022/03/14 09:15:38;;;;;;;8.38;3.40;;;;;;;;;;5010754;28;20146;-64
2022/03/14 09:18:08;;;;;;;7.05;4.07;;;;;;;;;;5011047;28;20592;-64
2022/03/14 09:20:44;;;;;;;9.15;3.78;;;;;;;;;;5010620;28;20054;-65
2022/03/14 09:23:20;;;;;;;6.95;3.95;;;;;;;;;;4991369;28;20054;-65
2022/03/14 09:25:52;;;;;;;6.45;3.53;;;;;;;;;;4939557;28;20059;-65
2022/03/14 09:28:22;;;;;;;10.00;4.20;;;;;;;;;;4920371;29;20048;-64
2022/03/14 09:30:56;;;;;;;9.18;3.78;;;;;;;;;;4967837;28;20055;-64
2022/03/14 09:33:33;;;;;;;10.10;3.85;;;;;;;;;;4955416;28;20043;-66
2022/03/14 09:36:04;;;;;;;6.25;3.70;;;;;;;;;;4971517;28;20050;-66
2022/03/14 09:38:35;;;;;;;7.18;3.60;;;;;;;;;;4932660;29;20063;-65
2022/03/14 09:41:07;;;;;;;11.18;3.58;;;;;;;;;;4933065;29;20055;-65
2022/03/14 09:43:41;;;;;;;8.20;3.40;;;;;;;;;;4901190;29;20527;-64
2022/03/14 09:46:13;;;;;;;5.70;3.03;;;;;;;;;;4933008;29;20191;-64
2022/03/14 09:48:50;;;;;;;8.82;3.20;;;;;;;;;;4917725;29;20052;-64
2022/03/14 09:51:26;;;;;;;6.32;3.03;;;;;;;;;;4931236;29;20051;-65
2022/03/14 09:53:58;;;;;;;5.72;3.13;;;;;;;;;;4947545;29;20055;-64
2022/03/14 09:56:31;;;;;;;6.18;3.25;;;;;;;;;;4951597;29;20047;-64
2022/03/14 09:59:02;;;;;;;6.50;3.00;;;;;;;;;;4952054;29;20055;-65
2022/03/14 10:01:41;;;;;;;7.20;2.70;;;;;;;;;;4929683;29;20047;-64
2022/03/14 10:04:14;;;;;;;6.30;3.15;;;;;;;;;;4947736;29;20056;-64
2022/03/14 10:06:45;;;;;;;5.60;2.80;;;;;;;;;;4938686;28;20042;-64
2022/03/14 10:09:15;;;;;;;5.50;3.50;;;;;;;;;;4958160;28;20860;-64
2022/03/14 10:11:46;;;;;;;7.03;2.85;;;;;;;;;;4990628;28;20043;-64
2022/03/14 10:14:19;;;;;;;7.47;2.50;;;;;;;;;;4990674;28;20054;-63
2022/03/14 10:16:56;;;;;;;8.13;3.25;;;;;;;;;;5020542;28;20057;-64
2022/03/14 10:19:34;;;;;;;5.45;2.80;;;;;;;;;;5013364;28;20045;-64
2022/03/14 10:22:20;;;;;;;6.68;2.72;;;;;;;;;;5029699;28;20052;-64
2022/03/14 10:25:03;;;;;;;7.28;2.88;;;;;;;;;;5029582;28;20045;-64
2022/03/14 10:27:35;;;;;;;8.85;3.58;;;;;;;;;;5009701;28;20054;-64
2022/03/14 10:30:08;;;;;;;6.07;2.80;;;;;;;;;;5009480;28;20058;-64
2022/03/14 10:32:44;;;;;;;5.35;2.40;;;;;;;;;;4978922;28;20069;-64
2022/03/14 10:35:22;;;;;;;5.00;2.63;;;;;;;;;;4977092;28;20054;-64
2022/03/14 10:37:58;;;;;;;4.18;2.10;;;;;;;;;;5009390;28;20057;-64
2022/03/14 10:40:40;;;;;;;4.78;2.20;;;;;;;;;;5036203;28;20053;-64
2022/03/14 10:43:24;;;;;;;5.45;1.92;;;;;;;;;;5032752;28;20053;-65
2022/03/14 10:45:56;;;;;;;3.45;1.80;;;;;;;;;;5016348;28;20056;-64
2022/03/14 10:48:45;;;;;;;3.45;1.75;;;;;;;;;;5049043;28;20064;-64
2022/03/14 10:51:17;;;;;;;4.38;2.00;;;;;;;;;;4977254;28;20108;-64
2022/03/14 10:53:51;;;;;;;3.92;2.03;;;;;;;;;;5025394;28;20073;-64
2022/03/14 10:56:28;;;;;;;4.25;1.95;;;;;;;;;;5009119;28;20050;-64
2022/03/14 10:58:58;;;;;;;4.32;1.63;;;;;;;;;;4989268;28;20576;-64
2022/03/14 11:01:28;;;;;;;5.57;2.00;;;;;;;;;;4969433;28;20050;-64
2022/03/14 11:03:59;;;;;;;3.17;1.65;;;;;;;;;;4954390;28;20058;-64
2022/03/14 11:06:37;;;;;;;3.90;1.67;;;;;;;;;;4970438;28;20059;-64
2022/03/14 11:09:07;;;;;;;3.40;1.73;;;;;;;;;;4970092;28;20070;-64
2022/03/14 11:11:38;;;;;;;4.50;1.52;;;;;;;;;;4970100;28;20058;-64
2022/03/14 11:14:14;;;;;;;3.33;1.60;;;;;;;;;;4902986;28;20043;-65
2022/03/14 11:16:47;;;;;;;3.40;1.63;;;;;;;;;;4931357;29;20063;-64
2022/03/14 11:19:21;;;;;;;3.22;1.42;;;;;;;;;;4931116;29;20055;-64
2022/03/14 11:21:51;;;;;;;5.00;2.13;;;;;;;;;;4931321;29;20052;-64
2022/03/14 11:24:23;;;;;;;4.25;1.77;;;;;;;;;;4931231;29;20063;-64
2022/03/14 11:26:58;;;;;;;4.97;2.58;;;;;;;;;;4911983;29;20559;-65
2022/03/14 11:29:35;;;;;;;4.32;2.35;;;;;;;;;;4910679;29;20504;-65
2022/03/14 11:32:09;;;;;;;4.35;2.28;;;;;;;;;;4931030;29;20063;-64
2022/03/14 11:35:06;;;;;;;4.07;1.90;;;;;;;;;;4931214;29;20062;-65
2022/03/14 11:37:42;;;;;;;3.90;1.98;;;;;;;;;;4967200;28;20055;-65
2022/03/14 11:40:16;;;;;;;3.75;1.95;;;;;;;;;;4940647;28;20526;-65
2022/03/14 11:42:46;;;;;;;3.88;1.80;;;;;;;;;;4989007;28;20086;-65
2022/03/14 11:45:19;;;;;;;2.80;1.45;;;;;;;;;;4988778;28;20054;-65
2022/03/14 11:47:53;;;;;;;3.22;1.58;;;;;;;;;;4949723;29;20063;-65
2022/03/14 11:50:24;;;;;;;6.43;1.77;;;;;;;;;;4950166;29;20443;-64
2022/03/14 11:52:56;;;;;;;3.22;1.75;;;;;;;;;;4927909;29;20063;-64
2022/03/14 11:55:31;;;;;;;3.20;1.70;;;;;;;;;;4930231;29;20071;-64
2022/03/14 11:58:02;;;;;;;6.35;1.77;;;;;;;;;;4932178;29;20056;-64
2022/03/14 12:00:34;;;;;;;3.38;1.40;;;;;;;;;;4969190;28;20055;-64
2022/03/14 12:03:07;;;;;;;3.78;1.30;;;;;;;;;;4969324;28;20055;-64
2022/03/14 12:05:40;;;;;;;3.35;1.75;;;;;;;;;;4955209;28;20402;-64
2022/03/14 12:08:16;;;;;;;2.33;1.30;;;;;;;;;;4972997;28;20054;-64
2022/03/14 12:10:50;;;;;;;3.67;1.40;;;;;;;;;;4973447;28;20046;-64
2022/03/14 12:13:43;;;;;;;2.58;1.42;;;;;;;;;;4974717;28;20438;-64
2022/03/14 12:16:46;;;;;;;2.47;1.38;;;;;;;;;;4927271;28;20066;-60
2022/03/14 12:19:42;;;;;;;2.60;1.35;;;;;;;;;;4972898;28;20058;-63
2022/03/14 12:22:35;;;;;;;1.98;1.27;;;;;;;;;;4934940;29;20056;-64
2022/03/14 12:25:09;;;;;;;3.90;1.48;;;;;;;;;;4953590;29;20059;-63
2022/03/14 12:27:46;;;;;;;2.30;1.17;;;;;;;;;;4953695;29;20412;-64
2022/03/14 12:30:24;;;;;;;2.15;1.08;;;;;;;;;;4954090;29;20161;-63
2022/03/14 12:32:57;;;;;;;3.70;1.50;;;;;;;;;;4953617;28;20070;-64
2022/03/14 12:35:33;;;;;;;2.20;1.20;;;;;;;;;;4953764;28;20051;-63
2022/03/14 12:38:21;;;;;;;2.55;1.00;;;;;;;;;;4942735;28;20122;-63
2022/03/14 12:40:56;;;;;;;4.22;1.13;;;;;;;;;;4931956;29;20063;-63
2022/03/14 12:43:31;;;;;;;1.88;1.00;;;;;;;;;;4918924;29;20633;-63
2022/03/14 12:46:02;;;;;;;2.20;1.10;;;;;;;;;;4934265;29;20074;-63
2022/03/14 12:48:34;;;;;;;3.42;1.02;;;;;;;;;;4933895;29;20056;-63
2022/03/14 12:51:08;;;;;;;2.47;1.10;;;;;;;;;;4934115;29;20060;-63
2022/03/14 12:53:43;;;;;;;2.55;0.98;;;;;;;;;;4934034;29;20066;-63
2022/03/14 12:56:20;;;;;;;2.28;1.20;;;;;;;;;;4942071;29;20085;-64
2022/03/14 12:58:58;;;;;;;1.60;0.98;;;;;;;;;;4959369;28;20059;-63
2022/03/14 13:01:32;;;;;;;2.22;0.90;;;;;;;;;;4940053;28;20497;-64
2022/03/14 13:04:16;;;;;;;2.38;1.10;;;;;;;;;;4972319;28;20054;-64
2022/03/14 13:06:51;;;;;;;2.67;1.08;;;;;;;;;;4972259;28;20503;-63
2022/03/14 13:09:53;;;;;;;1.88;0.88;;;;;;;;;;4972310;28;20053;-64
2022/03/14 13:12:29;;;;;;;3.35;1.30;;;;;;;;;;4952656;29;20066;-64
2022/03/14 13:15:09;;;;;;;3.13;1.27;;;;;;;;;;4952752;29;20061;-64
2022/03/14 13:17:48;;;;;;;3.83;1.30;;;;;;;;;;4944077;28;20062;-64
2022/03/14 13:20:26;;;;;;;2.85;1.33;;;;;;;;;;4991505;28;20058;-63
2022/03/14 13:22:57;;;;;;;2.50;1.15;;;;;;;;;;4971787;28;20070;-63
2022/03/14 13:25:35;;;;;;;5.65;3.65;;;;;;;;;;4980018;28;20062;-64
2022/03/14 13:28:11;;;;;;;2.42;1.45;;;;;;;;;;4961972;28;20482;-64
2022/03/14 13:30:47;;;;;;;2.38;1.40;;;;;;;;;;4995175;28;20418;-63
2022/03/14 13:33:26;;;;;;;2.53;1.40;;;;;;;;;;5010710;28;20053;-64
2022/03/14 13:36:02;;;;;;;3.38;1.20;;;;;;;;;;5011580;28;20046;-63
2022/03/14 13:38:41;;;;;;;1.75;1.05;;;;;;;;;;5011397;28;20072;-63
2022/03/14 13:41:15;;;;;;;2.63;1.05;;;;;;;;;;5011113;28;20058;-64
2022/03/14 13:43:49;;;;;;;2.08;1.30;;;;;;;;;;4994317;28;20097;-63
2022/03/14 13:46:30;;;;;;;3.00;0.85;;;;;;;;;;5010926;28;20072;-64
2022/03/14 13:49:03;;;;;;;;;;;;;;;;;;4995703;28;20442;-63
2022/03/14 13:51:39;;;;;;;2.45;1.15;;;;;;;;;;5030376;28;19928;-63
2022/03/14 13:54:14;;;;;;;1.30;0.90;;;;;;;;;;5013967;28;20080;-63
2022/03/14 13:56:47;;;;;;;1.65;1.00;;;;;;;;;;4983195;28;20124;-63
2022/03/14 13:59:25;;;;;;;2.20;0.90;;;;;;;;;;4973877;28;20057;-63
2022/03/14 14:02:07;;;;;;;1.90;1.00;;;;;;;;;;4997362;28;20056;-63
2022/03/14 14:04:47;;;;;;;1.65;1.10;;;;;;;;;;5030069;28;20061;-63
2022/03/14 14:07:24;;;;;;;1.42;0.70;;;;;;;;;;5009823;28;20061;-63
2022/03/14 14:10:12;;;;;;;1.90;0.93;;;;;;;;;;4974021;28;20050;-63
2022/03/14 14:13:00;;;;;;;2.13;1.10;;;;;;;;;;4958346;28;20485;-63
2022/03/14 14:15:48;;;;;;;1.33;0.80;;;;;;;;;;4990264;28;20061;-63
2022/03/14 14:18:23;;;;;;;1.73;0.95;;;;;;;;;;4990410;28;20057;-63
2022/03/14 14:20:55;;;;;;;2.47;1.38;;;;;;;;;;4990090;28;20062;-63
2022/03/14 14:23:34;;;;;;;1.75;1.00;;;;;;;;;;4990031;28;20051;-63
2022/03/14 14:26:06;;;;;;;2.78;1.00;;;;;;;;;;4990071;28;20778;-62
2022/03/14 14:28:38;;;;;;;1.55;1.00;;;;;;;;;;4951326;28;20096;-63
2022/03/14 14:31:22;;;;;;;2.15;0.85;;;;;;;;;;4935924;28;20050;-63
2022/03/14 14:33:54;;;;;;;1.27;0.80;;;;;;;;;;4945826;28;20059;-63
2022/03/14 14:36:25;;;;;;;1.23;0.68;;;;;;;;;;4931264;29;20154;-63
2022/03/14 14:38:55;;;;;;;0.93;0.70;;;;;;;;;;4932020;29;20544;-63
2022/03/14 14:41:28;;;;;;;1.63;0.90;;;;;;;;;;4912688;29;20048;-63
2022/03/14 14:44:01;;;;;;;1.75;0.93;;;;;;;;;;4931633;29;20062;-63
2022/03/14 14:46:32;;;;;;;1.42;0.80;;;;;;;;;;4932168;29;20066;-63
2022/03/14 14:49:03;;;;;;;1.25;0.73;;;;;;;;;;4875066;29;20717;-63
2022/03/14 14:51:35;;;;;;;2.20;1.10;;;;;;;;;;4844383;29;20057;-63
2022/03/14 14:54:10;;;;;;;2.58;0.95;;;;;;;;;;4875176;29;20084;-63
2022/03/14 14:56:40;;;;;;;1.67;1.00;;;;;;;;;;4829054;29;20512;-63
2022/03/14 14:59:11;;;;;;;1.98;1.13;;;;;;;;;;4875129;29;20068;-63
2022/03/14 15:01:42;;;;;;;3.58;0.90;;;;;;;;;;4902707;29;20056;-63
2022/03/14 15:04:16;;;;;;;1.35;0.90;;;;;;;;;;4893604;29;20052;-63
2022/03/14 15:06:49;;;;;;;2.78;1.05;;;;;;;;;;4919573;29;20047;-63
2022/03/14 15:09:24;;;;;;;1.55;0.82;;;;;;;;;;4951014;29;20583;-64
2022/03/14 15:11:58;;;;;;;2.75;1.02;;;;;;;;;;4903017;29;20059;-64
2022/03/14 15:14:32;;;;;;;1.63;1.10;;;;;;;;;;4950757;29;20063;-64
2022/03/14 15:17:03;;;;;;;2.97;1.17;;;;;;;;;;4919541;29;20055;-64
2022/03/14 15:19:34;;;;;;;5.95;1.75;;;;;;;;;;4963629;28;20055;-64
2022/03/14 15:22:05;;;;;;;1.65;1.00;;;;;;;;;;4964361;28;20057;-64
2022/03/14 15:24:38;;;;;;;2.40;0.95;;;;;;;;;;4975977;28;20053;-64